createdAt,value
2023-02-19T00:01:53.221Z,6.00
2023-02-19T00:04:22.569Z,6.70
2023-02-19T00:06:50.891Z,9.10
2023-02-19T00:09:19.846Z,6.60
2023-02-19T00:11:48.199Z,7.90
2023-02-19T00:14:18.998Z,9.70
2023-02-19T00:16:47.426Z,7.10
2023-02-19T00:19:17.904Z,6.30
2023-02-19T00:21:46.162Z,6.20
2023-02-19T00:24:16.239Z,5.90
2023-02-19T00:26:45.181Z,6.80
2023-02-19T00:29:15.692Z,6.40
2023-02-19T00:31:44.773Z,5.80
2023-02-19T00:34:13.946Z,3.30
2023-02-19T00:36:42.864Z,5.30
2023-02-19T00:39:15.219Z,7.60
2023-02-19T00:41:43.377Z,5.60
2023-02-19T00:44:14.417Z,6.90
2023-02-19T00:46:44.347Z,8.30
2023-02-19T00:49:16.577Z,5.40
2023-02-19T00:51:44.243Z,8.20
2023-02-19T00:54:12.935Z,5.90
2023-02-19T00:56:41.015Z,5.50
2023-02-19T00:59:09.388Z,4.30
2023-02-19T01:01:37.464Z,5.50
2023-02-19T01:04:06.697Z,3.80
2023-02-19T01:06:35.592Z,7.70
2023-02-19T01:09:05.001Z,5.90
2023-02-19T01:11:32.675Z,4.00
2023-02-19T01:14:01.741Z,6.50
2023-02-19T01:16:30.919Z,6.60
2023-02-19T01:18:59.485Z,3.90
2023-02-19T01:21:28.434Z,5.90
2023-02-19T01:23:57.359Z,5.90
2023-02-19T01:26:30.623Z,3.80
2023-02-19T01:29:00.035Z,3.90
2023-02-19T01:31:28.764Z,6.00
2023-02-19T01:34:00.026Z,4.30
2023-02-19T01:36:29.024Z,4.00
2023-02-19T01:38:57.051Z,5.50
2023-02-19T01:41:25.975Z,6.20
2023-02-19T01:43:56.562Z,5.20
2023-02-19T01:46:43.850Z,5.10
2023-02-19T01:49:27.843Z,7.70
2023-02-19T01:51:58.450Z,6.70
2023-02-19T01:54:30.916Z,7.50
2023-02-19T01:56:59.988Z,5.80
2023-02-19T01:59:27.768Z,6.60
2023-02-19T02:01:56.160Z,6.80
2023-02-19T02:04:24.486Z,6.20
2023-02-19T02:06:58.702Z,3.80
2023-02-19T02:09:49.679Z,3.60
2023-02-19T02:12:17.347Z,4.30
2023-02-19T02:14:48.081Z,4.00
2023-02-19T02:17:29.455Z,4.00
2023-02-19T02:20:26.545Z,4.20
2023-02-19T02:23:00.695Z,4.70
2023-02-19T02:26:02.005Z,8.10
2023-02-19T02:29:15.097Z,6.90
2023-02-19T02:31:48.656Z,4.20
2023-02-19T02:34:23.276Z,4.80
2023-02-19T02:36:55.680Z,6.30
2023-02-19T02:39:27.033Z,7.00
2023-02-19T02:42:18.834Z,5.70
2023-02-19T02:45:10.966Z,2.90
2023-02-19T02:47:47.680Z,2.50
2023-02-19T02:50:18.606Z,2.30
2023-02-19T02:53:08.890Z,2.80
2023-02-19T02:55:43.014Z,4.40
2023-02-19T02:58:12.484Z,5.60
2023-02-19T03:01:04.268Z,3.20
2023-02-19T03:03:32.627Z,1.40
2023-02-19T03:06:04.821Z,1.70
2023-02-19T03:08:40.551Z,2.00
2023-02-19T03:11:30.383Z,2.40
2023-02-19T03:14:28.745Z,4.30
2023-02-19T03:17:26.733Z,2.70
2023-02-19T03:19:58.338Z,1.40
2023-02-19T03:22:31.026Z,2.20
2023-02-19T03:25:28.354Z,4.10
2023-02-19T03:28:00.432Z,2.80
2023-02-19T03:30:39.165Z,2.20
2023-02-19T03:33:15.828Z,3.20
2023-02-19T03:36:06.621Z,2.50
2023-02-19T03:38:41.288Z,1.70
2023-02-19T03:41:25.762Z,1.90
2023-02-19T03:44:07.797Z,3.70
2023-02-19T03:46:53.892Z,4.40
2023-02-19T03:49:43.682Z,3.80
2023-02-19T03:52:20.585Z,4.10
2023-02-19T03:54:58.634Z,4.90
2023-02-19T03:57:48.400Z,1.30
2023-02-19T04:00:32.904Z,2.20
2023-02-19T04:03:12.385Z,3.10
2023-02-19T04:05:52.022Z,1.40
2023-02-19T04:08:24.295Z,3.10
2023-02-19T04:11:00.138Z,3.30
2023-02-19T04:13:46.705Z,2.70
2023-02-19T04:16:24.457Z,3.20
2023-02-19T04:18:57.253Z,4.80
2023-02-19T04:21:26.730Z,3.50
2023-02-19T04:23:56.262Z,3.70
2023-02-19T04:26:24.256Z,3.20
2023-02-19T04:28:51.943Z,4.00
2023-02-19T04:31:19.846Z,2.90
2023-02-19T04:33:47.522Z,4.50
2023-02-19T04:36:15.136Z,3.80
2023-02-19T04:38:42.771Z,4.80
2023-02-19T04:41:10.864Z,5.90
2023-02-19T04:43:38.664Z,1.90
2023-02-19T04:46:06.299Z,2.20
2023-02-19T04:48:33.980Z,3.60
2023-02-19T04:51:06.664Z,4.00
2023-02-19T04:53:35.921Z,2.90
2023-02-19T04:56:09.002Z,3.00
2023-02-19T05:09:00.113Z,5.00
2023-02-19T05:11:27.952Z,3.20
2023-02-19T05:13:56.231Z,5.90
2023-02-19T05:16:23.923Z,4.70
2023-02-19T05:18:51.542Z,3.40
2023-02-19T05:21:19.503Z,2.60
2023-02-19T05:23:47.163Z,4.30
2023-02-19T05:26:21.294Z,7.00
2023-02-19T05:28:53.350Z,4.60
2023-02-19T05:31:21.626Z,4.40
2023-02-19T05:33:51.351Z,3.70
2023-02-19T05:38:52.763Z,3.40
2023-02-19T05:41:24.421Z,4.70
2023-02-19T05:43:52.283Z,3.80
2023-02-19T05:46:23.018Z,4.40
2023-02-19T05:48:52.372Z,3.60
2023-02-19T05:51:22.780Z,3.90
2023-02-19T05:53:51.168Z,5.50
2023-02-19T05:56:30.922Z,3.20
2023-02-19T05:59:00.085Z,3.50
2023-02-19T06:01:28.980Z,5.30
2023-02-19T06:03:58.036Z,3.70
2023-02-19T06:06:27.186Z,6.50
2023-02-19T06:08:55.040Z,5.60
2023-02-19T06:11:23.652Z,3.50
2023-02-19T06:13:51.502Z,5.20
2023-02-19T06:16:19.714Z,3.80
2023-02-19T06:18:47.730Z,5.40
2023-02-19T06:21:17.029Z,4.30
2023-02-19T06:23:45.078Z,6.10
2023-02-19T06:26:20.463Z,2.70
2023-02-19T06:28:50.290Z,3.40
2023-02-19T06:31:19.671Z,4.80
2023-02-19T06:33:47.710Z,3.40
2023-02-19T06:36:17.796Z,5.40
2023-02-19T06:38:45.663Z,6.30
2023-02-19T06:41:14.197Z,4.50
2023-02-19T06:43:42.770Z,3.90
2023-02-19T06:46:12.034Z,5.80
2023-02-19T06:48:41.208Z,5.50
2023-02-19T06:51:14.041Z,3.60
2023-02-19T06:53:42.191Z,7.40
2023-02-19T06:56:29.703Z,4.00
2023-02-19T06:59:01.023Z,4.60
2023-02-19T07:01:34.264Z,3.90
2023-02-19T07:04:02.932Z,4.00
2023-02-19T07:06:31.262Z,7.30
2023-02-19T07:08:59.139Z,3.70
2023-02-19T07:11:29.933Z,4.60
2023-02-19T07:13:59.463Z,3.30
2023-02-19T07:16:27.389Z,3.90
2023-02-19T07:18:59.199Z,4.40
2023-02-19T07:21:28.178Z,4.90
2023-02-19T07:23:56.427Z,5.00
2023-02-19T07:26:24.201Z,5.60
2023-02-19T07:28:54.321Z,5.60
2023-02-19T07:31:24.212Z,3.10
2023-02-19T07:36:21.659Z,4.70
2023-02-19T07:39:00.737Z,3.60
2023-02-19T07:41:28.717Z,5.00
2023-02-19T07:43:59.113Z,4.40
2023-02-19T07:46:27.648Z,4.80
2023-02-19T07:48:56.107Z,2.50
2023-02-19T07:51:24.622Z,3.20
2023-02-19T07:53:52.779Z,3.60
2023-02-19T07:56:21.377Z,7.30
2023-02-19T07:58:49.762Z,2.30
2023-02-19T08:01:45.511Z,5.90
2023-02-19T08:04:14.514Z,7.00
2023-02-19T08:06:44.330Z,6.10
2023-02-19T08:09:12.080Z,4.40
2023-02-19T08:11:58.481Z,6.10
2023-02-19T08:14:27.628Z,3.90
2023-02-19T08:16:55.816Z,5.70
2023-02-19T08:19:24.488Z,6.10
2023-02-19T08:21:53.595Z,5.90
2023-02-19T08:24:22.451Z,5.40
2023-02-19T08:26:50.342Z,3.70
2023-02-19T08:29:18.150Z,3.70
2023-02-19T08:31:46.053Z,3.60
2023-02-19T08:34:13.728Z,5.50
2023-02-19T08:36:41.558Z,3.60
2023-02-19T08:39:10.232Z,6.80
2023-02-19T08:41:45.274Z,4.80
2023-02-19T08:44:13.331Z,3.70
2023-02-19T08:46:41.454Z,4.30
2023-02-19T08:49:09.246Z,3.30
2023-02-19T08:51:39.614Z,4.00
2023-02-19T08:54:07.394Z,8.30
2023-02-19T08:56:35.148Z,4.90
2023-02-19T08:59:03.024Z,3.40
2023-02-19T09:01:30.818Z,5.20
2023-02-19T09:03:58.679Z,6.10
2023-02-19T09:06:26.632Z,8.40
2023-02-19T09:08:54.532Z,6.90
2023-02-19T09:11:22.226Z,5.70
2023-02-19T09:13:49.880Z,4.50
2023-02-19T09:16:17.596Z,7.20
2023-02-19T09:18:45.890Z,5.20
2023-02-19T09:21:13.743Z,6.10
2023-02-19T09:23:41.528Z,6.10
2023-02-19T09:26:11.432Z,7.10
2023-02-19T09:28:41.662Z,3.90
2023-02-19T09:31:13.122Z,3.20
2023-02-19T09:33:46.000Z,5.30
2023-02-19T09:36:15.091Z,5.90
2023-02-19T09:38:42.862Z,3.30
2023-02-19T09:41:30.803Z,4.90
2023-02-19T09:44:02.008Z,4.60
2023-02-19T09:46:40.820Z,4.00
2023-02-19T09:49:17.413Z,7.90
2023-02-19T09:52:00.060Z,5.50
2023-02-19T09:54:31.012Z,5.20
2023-02-19T09:57:02.205Z,5.60
2023-02-19T09:59:40.382Z,3.20
2023-02-19T10:02:11.556Z,5.00
2023-02-19T10:04:42.838Z,6.00
2023-02-19T10:07:13.538Z,3.90
2023-02-19T10:09:41.745Z,6.60
2023-02-19T10:12:21.981Z,2.80
2023-02-19T10:14:52.808Z,3.10
2023-02-19T10:31:24.088Z,6.00
2023-02-19T10:36:38.244Z,3.50
2023-02-19T10:39:32.920Z,8.90
2023-02-19T10:41:59.843Z,3.80
2023-02-19T10:44:37.953Z,7.60
2023-02-19T10:47:05.754Z,3.40
2023-02-19T10:49:47.051Z,6.30
2023-02-19T10:52:34.818Z,6.20
2023-02-19T10:55:37.927Z,4.10
2023-02-19T10:58:27.069Z,4.30
2023-02-19T11:01:18.746Z,4.90
2023-02-19T11:03:47.830Z,4.10
2023-02-19T11:06:16.977Z,5.30
2023-02-19T11:09:00.355Z,6.70
2023-02-19T11:11:40.740Z,5.10
2023-02-19T11:14:27.431Z,3.80
2023-02-19T11:16:57.074Z,5.10
2023-02-19T11:21:56.233Z,3.90
2023-02-19T11:24:34.418Z,3.90
2023-02-19T11:27:05.265Z,3.60
2023-02-19T11:29:34.968Z,4.70
2023-02-19T11:32:24.813Z,5.30
2023-02-19T11:35:04.966Z,7.10
2023-02-19T11:37:31.257Z,3.10
2023-02-19T11:39:58.089Z,4.20
2023-02-19T11:42:50.648Z,2.50
2023-02-19T11:45:34.042Z,3.10
2023-02-19T11:48:14.728Z,5.20
2023-02-19T11:51:16.604Z,5.60
2023-02-19T11:53:51.400Z,3.10
2023-02-19T11:56:33.337Z,3.50
2023-02-19T11:59:15.809Z,5.70
2023-02-19T12:02:11.487Z,5.80
2023-02-19T12:05:11.371Z,5.50
2023-02-19T12:08:07.685Z,3.50
2023-02-19T12:11:19.095Z,4.50
2023-02-19T12:13:45.408Z,5.50
2023-02-19T12:16:30.207Z,3.80
2023-02-19T12:19:12.018Z,4.50
2023-02-19T12:21:59.937Z,2.20
2023-02-19T12:24:48.325Z,3.10
2023-02-19T12:27:41.448Z,4.20
2023-02-19T12:30:17.359Z,3.70
2023-02-19T12:33:05.349Z,5.00
2023-02-19T12:35:58.066Z,4.40
2023-02-19T12:38:34.628Z,4.20
2023-02-19T12:41:31.520Z,3.10
2023-02-19T12:44:23.756Z,3.60
2023-02-19T12:47:00.588Z,8.70
2023-02-19T12:49:35.242Z,5.90
2023-02-19T12:52:09.411Z,2.00
2023-02-19T12:54:43.396Z,2.60
2023-02-19T12:57:20.142Z,3.80
2023-02-19T12:59:56.098Z,2.30
2023-02-19T13:05:17.926Z,3.60
2023-02-19T13:08:15.701Z,2.70
2023-02-19T13:11:20.169Z,4.90
2023-02-19T13:13:59.044Z,4.00
2023-02-19T13:19:15.244Z,3.50
2023-02-19T13:22:09.710Z,2.40
2023-02-19T13:24:42.132Z,4.40
2023-02-19T13:27:34.694Z,3.20
2023-02-19T13:30:24.351Z,3.00
2023-02-19T13:33:05.334Z,4.90
2023-02-19T13:35:58.446Z,5.30
2023-02-19T13:38:27.075Z,2.00
2023-02-19T13:41:00.149Z,4.50
2023-02-19T13:43:37.122Z,5.00
2023-02-19T13:46:09.701Z,5.00
2023-02-19T13:48:40.568Z,2.60
2023-02-19T13:51:23.694Z,6.10
2023-02-19T13:53:54.590Z,3.80
2023-02-19T13:56:34.495Z,3.00
2023-02-19T13:59:37.641Z,4.20
2023-02-19T14:02:25.934Z,3.50
2023-02-19T14:05:02.017Z,4.70
2023-02-19T14:07:51.147Z,2.90
2023-02-19T14:10:52.129Z,3.20
2023-02-19T14:13:47.589Z,2.50
2023-02-19T14:16:52.685Z,2.60
2023-02-19T14:19:42.722Z,2.70
2023-02-19T14:22:48.847Z,4.30
2023-02-19T14:25:28.566Z,2.90
2023-02-19T14:28:15.388Z,2.90
2023-02-19T14:30:59.311Z,3.70
2023-02-19T14:33:31.506Z,2.90
2023-02-19T14:36:06.176Z,2.20
2023-02-19T14:38:39.524Z,4.40
2023-02-19T14:41:13.732Z,3.20
2023-02-19T14:43:43.654Z,3.50
2023-02-19T14:46:31.241Z,2.30
2023-02-19T14:49:07.288Z,2.50
2023-02-19T14:51:44.870Z,3.00
2023-02-19T14:54:21.073Z,2.30
2023-02-19T14:56:55.237Z,3.30
2023-02-19T14:59:26.784Z,3.00
2023-02-19T15:02:03.689Z,6.30
2023-02-19T15:04:36.884Z,2.10
2023-02-19T15:07:08.513Z,3.70
2023-02-19T15:09:41.279Z,2.90
2023-02-19T15:12:17.291Z,4.30
2023-02-19T15:14:46.645Z,3.30
2023-02-19T15:17:25.571Z,2.20
2023-02-19T15:19:55.570Z,3.20
2023-02-19T15:22:25.895Z,3.40
2023-02-19T15:24:54.702Z,2.40
2023-02-19T15:27:24.544Z,3.50
2023-02-19T15:29:53.768Z,3.20
2023-02-19T15:32:27.251Z,5.50
2023-02-19T15:35:03.991Z,2.70
2023-02-19T15:37:35.689Z,3.00
2023-02-19T15:40:07.732Z,3.50
2023-02-19T15:42:37.213Z,5.20
2023-02-19T15:45:23.680Z,3.90
2023-02-19T15:47:55.656Z,4.50
2023-02-19T15:50:33.217Z,3.60
2023-02-19T15:53:09.513Z,3.30
2023-02-19T15:55:45.056Z,3.00
2023-02-19T15:58:32.323Z,3.80
2023-02-19T16:01:04.747Z,4.80
2023-02-19T16:03:32.817Z,2.80
2023-02-19T16:06:11.473Z,4.70
2023-02-19T16:08:40.874Z,2.10
2023-02-19T16:11:24.055Z,2.50
2023-02-19T16:13:52.116Z,2.60
2023-02-19T16:19:43.994Z,3.50
2023-02-19T16:22:15.980Z,4.10
2023-02-19T16:24:46.874Z,2.80
2023-02-19T16:27:40.817Z,4.70
2023-02-19T16:30:36.238Z,4.60
2023-02-19T16:33:21.280Z,6.90
2023-02-19T16:35:55.135Z,4.10
2023-02-19T16:38:25.432Z,5.50
2023-02-19T16:41:07.440Z,4.60
2023-02-19T16:43:41.689Z,5.00
2023-02-19T16:46:11.959Z,5.20
2023-02-19T16:48:39.821Z,3.50
2023-02-19T16:51:09.020Z,3.90
2023-02-19T16:53:36.922Z,3.80
2023-02-19T16:56:05.060Z,1.80
2023-02-19T16:58:32.777Z,4.90
2023-02-19T17:01:02.251Z,6.30
2023-02-19T17:03:30.261Z,2.40
2023-02-19T17:05:57.945Z,3.80
2023-02-19T17:08:34.044Z,5.30
2023-02-19T17:11:05.508Z,6.30
2023-02-19T17:13:33.432Z,2.90
2023-02-19T17:16:01.991Z,4.40
2023-02-19T17:18:30.021Z,3.20
2023-02-19T17:21:20.476Z,3.00
2023-02-19T17:23:51.448Z,3.40
2023-02-19T17:26:22.988Z,2.50
2023-02-19T17:28:51.288Z,3.50
2023-02-19T17:31:19.221Z,2.80
2023-02-19T17:33:47.109Z,2.70
2023-02-19T17:36:22.365Z,3.40
2023-02-19T17:38:50.742Z,3.40
2023-02-19T17:41:18.734Z,5.30
2023-02-19T17:43:47.521Z,4.90
2023-02-19T17:46:21.297Z,4.70
2023-02-19T17:48:50.893Z,3.20
2023-02-19T17:51:18.861Z,4.40
2023-02-19T17:53:47.015Z,3.80
2023-02-19T17:56:22.404Z,2.80
2023-02-19T17:58:50.363Z,7.80
2023-02-19T18:01:18.306Z,5.10
2023-02-19T18:03:46.434Z,6.70
2023-02-19T18:06:14.555Z,2.30
2023-02-19T18:08:52.656Z,5.60
2023-02-19T18:11:22.700Z,3.00
2023-02-19T18:13:52.034Z,5.00
2023-02-19T18:16:20.046Z,4.60
2023-02-19T18:18:47.952Z,3.00
2023-02-19T18:21:15.839Z,1.90
2023-02-19T18:23:43.726Z,3.20
2023-02-19T18:26:11.940Z,4.60
2023-02-19T18:28:40.277Z,4.00
2023-02-19T18:31:08.632Z,5.90
2023-02-19T18:33:37.912Z,4.60
2023-02-19T18:36:11.596Z,3.40
2023-02-19T18:38:39.463Z,6.60
2023-02-19T18:41:11.433Z,4.20
2023-02-19T18:43:41.524Z,3.70
2023-02-19T18:46:10.266Z,7.10
2023-02-19T18:48:38.511Z,6.30
2023-02-19T18:51:10.940Z,4.60
2023-02-19T18:53:38.899Z,3.50
2023-02-19T18:56:09.028Z,5.10
2023-02-19T18:58:36.764Z,3.70
2023-02-19T19:01:04.731Z,2.60
2023-02-19T19:03:32.481Z,2.70
2023-02-19T19:06:00.703Z,5.60
2023-02-19T19:08:30.651Z,6.10
2023-02-19T19:10:58.804Z,6.80
2023-02-19T19:13:26.733Z,3.10
2023-02-19T19:15:54.837Z,4.00
2023-02-19T19:18:22.835Z,6.60
2023-02-19T19:20:50.662Z,5.70
2023-02-19T19:23:18.493Z,4.20
2023-02-19T19:25:48.683Z,4.50
2023-02-19T19:28:17.353Z,3.70
2023-02-19T19:30:45.199Z,4.60
2023-02-19T19:33:17.885Z,18.10
2023-02-19T19:35:45.587Z,7.70
2023-02-19T19:38:13.352Z,20.90
2023-02-19T19:40:42.324Z,7.90
2023-02-19T19:43:10.257Z,6.40
2023-02-19T19:45:38.561Z,9.20
2023-02-19T19:48:06.354Z,15.90
2023-02-19T19:50:34.267Z,10.10
2023-02-19T19:53:02.011Z,6.70
2023-02-19T19:55:29.954Z,3.60
2023-02-19T19:57:57.753Z,5.10
2023-02-19T20:00:25.782Z,7.00
2023-02-19T20:02:53.600Z,5.70
2023-02-19T20:05:21.952Z,4.10
2023-02-19T20:07:52.917Z,5.20
2023-02-19T20:10:20.939Z,4.60
2023-02-19T20:12:49.622Z,3.50
2023-02-19T20:15:22.295Z,3.80
2023-02-19T20:20:35.885Z,6.10
2023-02-19T20:23:04.237Z,3.90
2023-02-19T20:25:31.998Z,3.80
2023-02-19T20:27:59.880Z,5.00
2023-02-19T20:30:29.074Z,4.40
2023-02-19T20:32:57.310Z,3.80
2023-02-19T20:35:28.727Z,4.00
2023-02-19T20:37:56.805Z,3.80
2023-02-19T20:40:27.482Z,4.20
2023-02-19T20:42:55.200Z,2.10
2023-02-19T20:45:23.138Z,3.40
2023-02-19T20:47:50.872Z,3.10
2023-02-19T20:50:19.216Z,6.40
2023-02-19T20:52:49.431Z,5.80
2023-02-19T20:55:17.515Z,5.00
2023-02-19T20:57:45.830Z,4.50
2023-02-19T21:00:15.653Z,3.50
2023-02-19T21:02:43.564Z,3.80
2023-02-19T21:05:13.883Z,3.60
2023-02-19T21:07:41.501Z,5.30
2023-02-19T21:10:10.086Z,5.00
2023-02-19T21:12:38.212Z,2.60
2023-02-19T21:15:06.436Z,6.00
2023-02-19T21:17:34.498Z,4.40
2023-02-19T21:20:02.551Z,4.50
2023-02-19T21:22:31.991Z,4.70
2023-02-19T21:24:59.782Z,4.00
2023-02-19T21:27:27.825Z,3.40
2023-02-19T21:29:55.862Z,3.80
2023-02-19T21:32:23.702Z,4.20
2023-02-19T21:34:51.543Z,3.50
2023-02-19T21:37:21.051Z,3.50
2023-02-19T21:39:48.900Z,4.30
2023-02-19T21:42:18.925Z,5.90
2023-02-19T21:44:46.692Z,4.40
2023-02-19T21:47:14.835Z,7.50
2023-02-19T21:49:43.216Z,6.00
2023-02-19T21:52:10.991Z,4.60
2023-02-19T21:54:38.690Z,5.90
2023-02-19T21:57:06.747Z,3.00
2023-02-19T21:59:34.602Z,4.30
2023-02-19T22:02:02.767Z,5.50
2023-02-19T22:04:30.584Z,5.20
2023-02-19T22:06:58.486Z,4.50
2023-02-19T22:09:26.571Z,5.90
2023-02-19T22:11:54.416Z,4.60
2023-02-19T22:14:22.144Z,5.00
2023-02-19T22:16:49.947Z,4.50
2023-02-19T22:19:17.789Z,4.10
2023-02-19T22:21:45.567Z,5.60
2023-02-19T22:24:18.693Z,18.00
2023-02-19T22:26:46.542Z,18.90
2023-02-19T22:29:16.060Z,14.30
2023-02-19T22:31:43.855Z,31.50
2023-02-19T22:34:11.828Z,17.50
2023-02-19T22:36:40.303Z,13.30
2023-02-19T22:39:14.895Z,18.50
2023-02-19T22:41:43.154Z,16.90
2023-02-19T22:44:11.376Z,19.70
2023-02-19T22:46:39.329Z,25.60
2023-02-19T22:49:07.453Z,16.60
2023-02-19T22:51:35.642Z,13.10
2023-02-19T22:54:03.568Z,9.60
2023-02-19T22:56:31.180Z,6.30
2023-02-19T22:59:00.496Z,6.10
2023-02-19T23:01:28.326Z,7.80
2023-02-19T23:03:58.238Z,7.40
2023-02-19T23:06:31.980Z,5.90
2023-02-19T23:09:04.810Z,8.50
2023-02-19T23:11:35.158Z,10.50
2023-02-19T23:14:03.330Z,4.90
2023-02-19T23:19:56.973Z,7.00
2023-02-19T23:22:24.739Z,5.80
2023-02-19T23:24:52.396Z,4.00
2023-02-19T23:27:20.265Z,8.10
2023-02-19T23:29:47.909Z,3.40
2023-02-19T23:32:20.834Z,4.30
2023-02-19T23:34:48.520Z,4.30
2023-02-19T23:37:16.759Z,4.20
2023-02-19T23:39:44.780Z,5.30
2023-02-19T23:42:16.566Z,3.40
2023-02-19T23:44:47.744Z,3.50
2023-02-19T23:47:15.624Z,5.30
2023-02-19T23:49:43.327Z,3.40
2023-02-19T23:52:11.013Z,4.40
2023-02-19T23:54:39.516Z,2.00
2023-02-19T23:57:07.300Z,6.20
2023-02-19T23:59:34.959Z,8.80
